sensor_id;sensor_type;location;lat;lon;timestamp;temperature;humidity
23087;DHT22;11712;51.134;4.156;2023-03-20T00:02:06;5.60;99.90
23087;DHT22;11712;51.134;4.156;2023-03-20T00:04:31;5.50;99.90
23087;DHT22;11712;51.134;4.156;2023-03-20T00:06:57;5.50;99.90
23087;DHT22;11712;51.134;4.156;2023-03-20T00:09:22;5.50;99.90
23087;DHT22;11712;51.134;4.156;2023-03-20T00:11:50;5.50;99.90
23087;DHT22;11712;51.134;4.156;2023-03-20T00:14:18;5.40;99.90
23087;DHT22;11712;51.134;4.156;2023-03-20T00:16:45;5.40;99.90
23087;DHT22;11712;51.134;4.156;2023-03-20T00:19:15;5.40;99.90
23087;DHT22;11712;51.134;4.156;2023-03-20T00:21:42;5.30;99.90
23087;DHT22;11712;51.134;4.156;2023-03-20T00:24:08;5.40;99.90
23087;DHT22;11712;51.134;4.156;2023-03-20T00:26:34;5.30;99.90
23087;DHT22;11712;51.134;4.156;2023-03-20T00:29:00;5.30;99.90
23087;DHT22;11712;51.134;4.156;2023-03-20T00:31:27;5.10;99.90
23087;DHT22;11712;51.134;4.156;2023-03-20T00:33:53;5.00;99.90
23087;DHT22;11712;51.134;4.156;2023-03-20T00:36:19;4.90;99.90
23087;DHT22;11712;51.134;4.156;2023-03-20T00:38:44;4.90;99.90
23087;DHT22;11712;51.134;4.156;2023-03-20T00:41:26;5.00;99.90
23087;DHT22;11712;51.134;4.156;2023-03-20T00:44:02;5.40;99.90
23087;DHT22;11712;51.134;4.156;2023-03-20T00:46:35;5.60;99.90
23087;DHT22;11712;51.134;4.156;2023-03-20T00:49:02;5.60;99.90
23087;DHT22;11712;51.134;4.156;2023-03-20T00:51:27;5.50;99.90
23087;DHT22;11712;51.134;4.156;2023-03-20T00:53:53;5.60;99.90
23087;DHT22;11712;51.134;4.156;2023-03-20T00:58:50;5.60;99.90
23087;DHT22;11712;51.134;4.156;2023-03-20T01:01:16;5.70;99.90
23087;DHT22;11712;51.134;4.156;2023-03-20T01:03:42;5.70;99.90
23087;DHT22;11712;51.134;4.156;2023-03-20T01:06:09;5.60;99.90
23087;DHT22;11712;51.134;4.156;2023-03-20T01:08:36;5.50;99.90
23087;DHT22;11712;51.134;4.156;2023-03-20T01:11:02;5.50;99.90
23087;DHT22;11712;51.134;4.156;2023-03-20T01:13:28;5.20;99.90
23087;DHT22;11712;51.134;4.156;2023-03-20T01:15:55;5.40;99.90
23087;DHT22;11712;51.134;4.156;2023-03-20T01:18:23;5.50;99.90
23087;DHT22;11712;51.134;4.156;2023-03-20T01:20:49;5.70;99.90
23087;DHT22;11712;51.134;4.156;2023-03-20T01:23:14;5.80;99.90
23087;DHT22;11712;51.134;4.156;2023-03-20T01:25:40;5.90;99.90
23087;DHT22;11712;51.134;4.156;2023-03-20T01:28:27;6.00;99.90
23087;DHT22;11712;51.134;4.156;2023-03-20T01:30:52;6.00;99.90
23087;DHT22;11712;51.134;4.156;2023-03-20T01:33:21;6.00;99.90
23087;DHT22;11712;51.134;4.156;2023-03-20T01:35:48;5.90;99.90
23087;DHT22;11712;51.134;4.156;2023-03-20T01:38:18;5.90;99.90
23087;DHT22;11712;51.134;4.156;2023-03-20T01:40:50;5.80;99.90
23087;DHT22;11712;51.134;4.156;2023-03-20T01:43:18;5.70;99.90
23087;DHT22;11712;51.134;4.156;2023-03-20T01:51:14;5.80;99.90
23087;DHT22;11712;51.134;4.156;2023-03-20T01:53:39;5.80;99.90
23087;DHT22;11712;51.134;4.156;2023-03-20T01:56:05;5.80;99.90
23087;DHT22;11712;51.134;4.156;2023-03-20T01:58:34;5.80;99.90
23087;DHT22;11712;51.134;4.156;2023-03-20T02:01:06;5.80;99.90
23087;DHT22;11712;51.134;4.156;2023-03-20T02:03:34;5.80;99.90
23087;DHT22;11712;51.134;4.156;2023-03-20T02:05:59;5.90;99.90
23087;DHT22;11712;51.134;4.156;2023-03-20T02:08:29;5.90;99.90
23087;DHT22;11712;51.134;4.156;2023-03-20T02:10:55;5.90;99.90
23087;DHT22;11712;51.134;4.156;2023-03-20T02:13:21;5.90;99.90
23087;DHT22;11712;51.134;4.156;2023-03-20T02:15:58;5.90;99.90
23087;DHT22;11712;51.134;4.156;2023-03-20T02:18:24;5.90;99.90
23087;DHT22;11712;51.134;4.156;2023-03-20T02:23:48;5.90;99.90
23087;DHT22;11712;51.134;4.156;2023-03-20T02:29:11;5.90;99.90
23087;DHT22;11712;51.134;4.156;2023-03-20T02:31:57;5.90;99.90
23087;DHT22;11712;51.134;4.156;2023-03-20T02:34:48;5.90;99.90
23087;DHT22;11712;51.134;4.156;2023-03-20T02:39:56;6.00;99.90
23087;DHT22;11712;51.134;4.156;2023-03-20T02:57:47;6.10;99.90
23087;DHT22;11712;51.134;4.156;2023-03-20T03:00:21;6.10;99.90
23087;DHT22;11712;51.134;4.156;2023-03-20T03:02:49;6.10;99.90
23087;DHT22;11712;51.134;4.156;2023-03-20T03:05:20;6.00;99.90
23087;DHT22;11712;51.134;4.156;2023-03-20T03:07:47;6.10;99.90
23087;DHT22;11712;51.134;4.156;2023-03-20T03:10:28;6.00;99.90
23087;DHT22;11712;51.134;4.156;2023-03-20T03:12:55;6.00;99.90
23087;DHT22;11712;51.134;4.156;2023-03-20T03:15:26;6.00;99.90
23087;DHT22;11712;51.134;4.156;2023-03-20T03:17:53;6.00;99.90
23087;DHT22;11712;51.134;4.156;2023-03-20T03:20:24;6.00;99.90
23087;DHT22;11712;51.134;4.156;2023-03-20T03:22:51;6.00;99.90
23087;DHT22;11712;51.134;4.156;2023-03-20T03:25:16;6.00;99.90
23087;DHT22;11712;51.134;4.156;2023-03-20T03:27:43;6.00;99.90
23087;DHT22;11712;51.134;4.156;2023-03-20T03:30:23;6.10;99.90
23087;DHT22;11712;51.134;4.156;2023-03-20T03:33:00;6.10;99.90
23087;DHT22;11712;51.134;4.156;2023-03-20T03:35:27;6.10;99.90
23087;DHT22;11712;51.134;4.156;2023-03-20T03:38:05;6.10;99.90
23087;DHT22;11712;51.134;4.156;2023-03-20T03:40:42;6.00;99.90
23087;DHT22;11712;51.134;4.156;2023-03-20T03:43:30;6.00;99.90
23087;DHT22;11712;51.134;4.156;2023-03-20T03:45:58;6.00;99.90
23087;DHT22;11712;51.134;4.156;2023-03-20T03:48:27;6.00;99.90
23087;DHT22;11712;51.134;4.156;2023-03-20T03:50:56;6.10;99.90
23087;DHT22;11712;51.134;4.156;2023-03-20T03:53:35;6.10;99.90
23087;DHT22;11712;51.134;4.156;2023-03-20T03:56:03;6.00;99.90
23087;DHT22;11712;51.134;4.156;2023-03-20T03:58:35;6.00;99.90
23087;DHT22;11712;51.134;4.156;2023-03-20T04:01:02;6.10;99.90
23087;DHT22;11712;51.134;4.156;2023-03-20T04:03:30;6.10;99.90
23087;DHT22;11712;51.134;4.156;2023-03-20T04:05:57;6.10;99.90
23087;DHT22;11712;51.134;4.156;2023-03-20T04:08:23;6.10;99.90
23087;DHT22;11712;51.134;4.156;2023-03-20T04:10:49;6.10;99.90
23087;DHT22;11712;51.134;4.156;2023-03-20T04:13:15;6.10;99.90
23087;DHT22;11712;51.134;4.156;2023-03-20T04:15:41;6.10;99.90
23087;DHT22;11712;51.134;4.156;2023-03-20T04:18:06;6.10;99.90
23087;DHT22;11712;51.134;4.156;2023-03-20T04:20:32;6.10;99.90
23087;DHT22;11712;51.134;4.156;2023-03-20T04:22:58;6.10;99.90
23087;DHT22;11712;51.134;4.156;2023-03-20T04:25:24;6.20;99.90
23087;DHT22;11712;51.134;4.156;2023-03-20T04:27:50;6.20;99.90
23087;DHT22;11712;51.134;4.156;2023-03-20T04:30:16;6.20;99.90
23087;DHT22;11712;51.134;4.156;2023-03-20T04:32:42;6.20;99.90
23087;DHT22;11712;51.134;4.156;2023-03-20T04:35:08;6.20;99.90
23087;DHT22;11712;51.134;4.156;2023-03-20T04:37:33;6.20;99.90
23087;DHT22;11712;51.134;4.156;2023-03-20T04:39:59;6.20;99.90
23087;DHT22;11712;51.134;4.156;2023-03-20T04:42:24;6.20;99.90
23087;DHT22;11712;51.134;4.156;2023-03-20T04:44:50;6.20;99.90
23087;DHT22;11712;51.134;4.156;2023-03-20T04:47:16;6.20;99.90
23087;DHT22;11712;51.134;4.156;2023-03-20T04:49:41;6.20;99.90
23087;DHT22;11712;51.134;4.156;2023-03-20T04:52:07;6.20;99.90
23087;DHT22;11712;51.134;4.156;2023-03-20T04:54:33;6.20;99.90
23087;DHT22;11712;51.134;4.156;2023-03-20T04:56:58;6.20;99.90
23087;DHT22;11712;51.134;4.156;2023-03-20T04:59:24;6.20;99.90
23087;DHT22;11712;51.134;4.156;2023-03-20T05:01:49;6.30;99.90
23087;DHT22;11712;51.134;4.156;2023-03-20T05:04:15;6.30;99.90
23087;DHT22;11712;51.134;4.156;2023-03-20T05:06:40;6.20;99.90
23087;DHT22;11712;51.134;4.156;2023-03-20T05:09:06;6.20;99.90
23087;DHT22;11712;51.134;4.156;2023-03-20T05:11:31;6.30;99.90
23087;DHT22;11712;51.134;4.156;2023-03-20T05:13:57;6.30;99.90
23087;DHT22;11712;51.134;4.156;2023-03-20T05:16:23;6.30;99.90
23087;DHT22;11712;51.134;4.156;2023-03-20T05:18:48;6.30;99.90
23087;DHT22;11712;51.134;4.156;2023-03-20T05:21:14;6.20;99.90
23087;DHT22;11712;51.134;4.156;2023-03-20T05:23:40;6.30;99.90
23087;DHT22;11712;51.134;4.156;2023-03-20T05:26:05;6.30;99.90
23087;DHT22;11712;51.134;4.156;2023-03-20T05:28:31;6.30;99.90
23087;DHT22;11712;51.134;4.156;2023-03-20T05:30:57;6.30;99.90
23087;DHT22;11712;51.134;4.156;2023-03-20T05:33:22;6.30;99.90
23087;DHT22;11712;51.134;4.156;2023-03-20T05:35:48;6.30;99.90
23087;DHT22;11712;51.134;4.156;2023-03-20T05:38:13;6.30;99.90
23087;DHT22;11712;51.134;4.156;2023-03-20T05:40:39;6.30;99.90
23087;DHT22;11712;51.134;4.156;2023-03-20T05:43:06;6.40;99.90
23087;DHT22;11712;51.134;4.156;2023-03-20T05:45:32;6.40;99.90
23087;DHT22;11712;51.134;4.156;2023-03-20T05:47:57;6.40;99.90
23087;DHT22;11712;51.134;4.156;2023-03-20T05:50:23;6.30;99.90
23087;DHT22;11712;51.134;4.156;2023-03-20T05:52:48;6.40;99.90
23087;DHT22;11712;51.134;4.156;2023-03-20T05:55:14;6.40;99.90
23087;DHT22;11712;51.134;4.156;2023-03-20T05:57:40;6.30;99.90
23087;DHT22;11712;51.134;4.156;2023-03-20T06:00:06;6.40;99.90
23087;DHT22;11712;51.134;4.156;2023-03-20T06:02:32;6.40;99.90
23087;DHT22;11712;51.134;4.156;2023-03-20T06:04:58;6.40;99.90
23087;DHT22;11712;51.134;4.156;2023-03-20T06:07:24;6.50;99.90
23087;DHT22;11712;51.134;4.156;2023-03-20T06:09:49;6.50;99.90
23087;DHT22;11712;51.134;4.156;2023-03-20T06:12:16;6.50;99.90
23087;DHT22;11712;51.134;4.156;2023-03-20T06:14:42;6.50;99.90
23087;DHT22;11712;51.134;4.156;2023-03-20T06:17:07;6.50;99.90
23087;DHT22;11712;51.134;4.156;2023-03-20T06:19:33;6.50;99.90
23087;DHT22;11712;51.134;4.156;2023-03-20T06:21:58;6.50;99.90
23087;DHT22;11712;51.134;4.156;2023-03-20T06:24:24;6.50;99.90
23087;DHT22;11712;51.134;4.156;2023-03-20T06:26:50;6.50;99.90
23087;DHT22;11712;51.134;4.156;2023-03-20T06:29:16;6.50;99.90
23087;DHT22;11712;51.134;4.156;2023-03-20T06:31:41;6.50;99.90
23087;DHT22;11712;51.134;4.156;2023-03-20T06:34:07;6.50;99.90
23087;DHT22;11712;51.134;4.156;2023-03-20T06:36:32;6.50;99.90
23087;DHT22;11712;51.134;4.156;2023-03-20T06:38:58;6.60;99.90
23087;DHT22;11712;51.134;4.156;2023-03-20T06:41:23;6.50;99.90
23087;DHT22;11712;51.134;4.156;2023-03-20T06:43:49;6.60;99.90
23087;DHT22;11712;51.134;4.156;2023-03-20T06:46:15;6.60;99.90
23087;DHT22;11712;51.134;4.156;2023-03-20T06:48:41;6.60;99.90
23087;DHT22;11712;51.134;4.156;2023-03-20T06:51:06;6.70;99.90
23087;DHT22;11712;51.134;4.156;2023-03-20T06:53:32;6.70;99.90
23087;DHT22;11712;51.134;4.156;2023-03-20T06:55:57;6.80;99.90
23087;DHT22;11712;51.134;4.156;2023-03-20T06:58:23;6.80;99.90
23087;DHT22;11712;51.134;4.156;2023-03-20T07:00:49;6.80;99.90
23087;DHT22;11712;51.134;4.156;2023-03-20T07:03:16;6.90;99.90
23087;DHT22;11712;51.134;4.156;2023-03-20T07:05:41;6.90;99.90
23087;DHT22;11712;51.134;4.156;2023-03-20T07:08:07;6.90;99.90
23087;DHT22;11712;51.134;4.156;2023-03-20T07:10:33;7.00;99.90
23087;DHT22;11712;51.134;4.156;2023-03-20T07:12:59;7.00;99.90
23087;DHT22;11712;51.134;4.156;2023-03-20T07:15:25;7.00;99.90
23087;DHT22;11712;51.134;4.156;2023-03-20T07:17:51;7.10;99.90
23087;DHT22;11712;51.134;4.156;2023-03-20T07:20:17;7.10;99.90
23087;DHT22;11712;51.134;4.156;2023-03-20T07:22:43;7.00;99.90
23087;DHT22;11712;51.134;4.156;2023-03-20T07:25:09;7.10;99.90
23087;DHT22;11712;51.134;4.156;2023-03-20T07:27:35;7.20;99.90
23087;DHT22;11712;51.134;4.156;2023-03-20T07:30:01;7.30;99.90
23087;DHT22;11712;51.134;4.156;2023-03-20T07:32:26;7.30;99.90
23087;DHT22;11712;51.134;4.156;2023-03-20T07:34:52;7.30;99.90
23087;DHT22;11712;51.134;4.156;2023-03-20T07:37:18;7.40;99.90
23087;DHT22;11712;51.134;4.156;2023-03-20T07:39:43;7.40;99.90
23087;DHT22;11712;51.134;4.156;2023-03-20T07:42:09;7.40;99.90
23087;DHT22;11712;51.134;4.156;2023-03-20T07:44:34;7.40;99.90
23087;DHT22;11712;51.134;4.156;2023-03-20T07:47:00;7.40;99.90
23087;DHT22;11712;51.134;4.156;2023-03-20T07:49:25;7.40;99.90
23087;DHT22;11712;51.134;4.156;2023-03-20T07:51:51;7.40;99.90
23087;DHT22;11712;51.134;4.156;2023-03-20T07:54:18;7.40;99.90
23087;DHT22;11712;51.134;4.156;2023-03-20T07:56:44;7.50;99.90
23087;DHT22;11712;51.134;4.156;2023-03-20T07:59:11;7.50;99.90
23087;DHT22;11712;51.134;4.156;2023-03-20T08:01:36;7.60;99.90
23087;DHT22;11712;51.134;4.156;2023-03-20T08:04:02;7.70;99.90
23087;DHT22;11712;51.134;4.156;2023-03-20T08:06:28;7.70;99.90
23087;DHT22;11712;51.134;4.156;2023-03-20T08:08:53;7.70;99.90
23087;DHT22;11712;51.134;4.156;2023-03-20T08:11:19;7.80;99.90
23087;DHT22;11712;51.134;4.156;2023-03-20T08:13:45;7.80;99.90
23087;DHT22;11712;51.134;4.156;2023-03-20T08:16:10;7.80;99.90
23087;DHT22;11712;51.134;4.156;2023-03-20T08:18:36;7.80;99.90
23087;DHT22;11712;51.134;4.156;2023-03-20T08:21:02;7.90;99.90
23087;DHT22;11712;51.134;4.156;2023-03-20T08:23:28;8.00;99.90
23087;DHT22;11712;51.134;4.156;2023-03-20T08:25:53;8.00;99.90
23087;DHT22;11712;51.134;4.156;2023-03-20T08:28:19;7.90;99.90
23087;DHT22;11712;51.134;4.156;2023-03-20T08:30:45;8.00;99.90
23087;DHT22;11712;51.134;4.156;2023-03-20T08:33:12;7.90;99.90
23087;DHT22;11712;51.134;4.156;2023-03-20T08:35:38;7.90;99.90
23087;DHT22;11712;51.134;4.156;2023-03-20T08:38:03;7.90;99.90
23087;DHT22;11712;51.134;4.156;2023-03-20T08:40:29;7.90;99.90
23087;DHT22;11712;51.134;4.156;2023-03-20T08:42:55;8.00;99.90
23087;DHT22;11712;51.134;4.156;2023-03-20T08:45:20;8.00;99.90
23087;DHT22;11712;51.134;4.156;2023-03-20T08:47:48;8.10;99.90
23087;DHT22;11712;51.134;4.156;2023-03-20T08:50:14;8.10;99.90
23087;DHT22;11712;51.134;4.156;2023-03-20T08:52:40;8.10;99.90
23087;DHT22;11712;51.134;4.156;2023-03-20T08:55:11;8.10;99.90
23087;DHT22;11712;51.134;4.156;2023-03-20T08:57:37;8.20;99.90
23087;DHT22;11712;51.134;4.156;2023-03-20T09:00:06;8.30;99.90
23087;DHT22;11712;51.134;4.156;2023-03-20T09:02:32;8.40;99.90
23087;DHT22;11712;51.134;4.156;2023-03-20T09:04:58;8.50;99.90
23087;DHT22;11712;51.134;4.156;2023-03-20T09:07:24;8.60;99.90
23087;DHT22;11712;51.134;4.156;2023-03-20T09:09:49;8.70;99.90
23087;DHT22;11712;51.134;4.156;2023-03-20T09:12:15;8.70;99.90
23087;DHT22;11712;51.134;4.156;2023-03-20T09:14:41;8.80;99.90
23087;DHT22;11712;51.134;4.156;2023-03-20T09:17:06;8.80;99.90
23087;DHT22;11712;51.134;4.156;2023-03-20T09:19:32;8.90;99.90
23087;DHT22;11712;51.134;4.156;2023-03-20T09:21:58;9.00;99.90
23087;DHT22;11712;51.134;4.156;2023-03-20T09:24:24;9.10;99.90
23087;DHT22;11712;51.134;4.156;2023-03-20T09:26:50;9.20;99.90
23087;DHT22;11712;51.134;4.156;2023-03-20T09:29:16;9.20;99.90
23087;DHT22;11712;51.134;4.156;2023-03-20T09:31:42;9.20;99.90
23087;DHT22;11712;51.134;4.156;2023-03-20T09:34:07;9.30;99.90
23087;DHT22;11712;51.134;4.156;2023-03-20T09:36:33;9.30;99.90
23087;DHT22;11712;51.134;4.156;2023-03-20T09:38:59;9.30;99.90
23087;DHT22;11712;51.134;4.156;2023-03-20T09:41:25;9.30;99.90
23087;DHT22;11712;51.134;4.156;2023-03-20T09:52:31;9.40;99.90
23087;DHT22;11712;51.134;4.156;2023-03-20T09:55:01;9.50;99.90
23087;DHT22;11712;51.134;4.156;2023-03-20T09:57:33;9.50;99.90
23087;DHT22;11712;51.134;4.156;2023-03-20T10:00:00;9.50;99.90
23087;DHT22;11712;51.134;4.156;2023-03-20T10:02:35;9.50;99.90
23087;DHT22;11712;51.134;4.156;2023-03-20T10:05:02;9.50;99.90
23087;DHT22;11712;51.134;4.156;2023-03-20T10:07:28;9.50;99.90
23087;DHT22;11712;51.134;4.156;2023-03-20T10:09:54;9.60;99.90
23087;DHT22;11712;51.134;4.156;2023-03-20T10:19:57;9.50;99.90
23087;DHT22;11712;51.134;4.156;2023-03-20T10:22:35;9.40;99.90
23087;DHT22;11712;51.134;4.156;2023-03-20T10:25:06;9.40;99.90
23087;DHT22;11712;51.134;4.156;2023-03-20T10:33:03;9.30;99.90
23087;DHT22;11712;51.134;4.156;2023-03-20T10:35:28;9.40;99.90
23087;DHT22;11712;51.134;4.156;2023-03-20T10:40:40;9.80;99.90
23087;DHT22;11712;51.134;4.156;2023-03-20T10:43:20;10.00;99.90
23087;DHT22;11712;51.134;4.156;2023-03-20T10:46:02;10.10;99.90
23087;DHT22;11712;51.134;4.156;2023-03-20T10:48:33;10.10;99.90
23087;DHT22;11712;51.134;4.156;2023-03-20T10:51:01;10.10;99.90
23087;DHT22;11712;51.134;4.156;2023-03-20T10:55:54;10.10;99.90
23087;DHT22;11712;51.134;4.156;2023-03-20T10:58:23;10.40;99.90
23087;DHT22;11712;51.134;4.156;2023-03-20T11:00:50;10.60;99.90
23087;DHT22;11712;51.134;4.156;2023-03-20T11:03:23;11.00;99.90
23087;DHT22;11712;51.134;4.156;2023-03-20T11:06:32;11.00;99.90
23087;DHT22;11712;51.134;4.156;2023-03-20T11:08:39;11.00;99.90
23087;DHT22;11712;51.134;4.156;2023-03-20T11:11:05;10.90;99.90
23087;DHT22;11712;51.134;4.156;2023-03-20T11:13:34;11.00;99.90
23087;DHT22;11712;51.134;4.156;2023-03-20T11:18:35;11.50;99.90
23087;DHT22;11712;51.134;4.156;2023-03-20T11:21:01;11.60;99.90
23087;DHT22;11712;51.134;4.156;2023-03-20T11:23:36;11.70;99.90
23087;DHT22;11712;51.134;4.156;2023-03-20T11:26:02;11.90;99.90
23087;DHT22;11712;51.134;4.156;2023-03-20T11:31:30;11.70;99.90
23087;DHT22;11712;51.134;4.156;2023-03-20T11:36:29;11.80;99.90
23087;DHT22;11712;51.134;4.156;2023-03-20T11:39:00;11.70;99.90
23087;DHT22;11712;51.134;4.156;2023-03-20T11:41:26;11.70;99.90
23087;DHT22;11712;51.134;4.156;2023-03-20T11:43:52;11.60;99.90
23087;DHT22;11712;51.134;4.156;2023-03-20T11:46:18;11.70;99.90
23087;DHT22;11712;51.134;4.156;2023-03-20T11:48:45;11.80;99.90
23087;DHT22;11712;51.134;4.156;2023-03-20T11:51:16;11.70;99.90
23087;DHT22;11712;51.134;4.156;2023-03-20T11:56:14;11.40;
23087;DHT22;11712;51.134;4.156;2023-03-20T11:58:55;11.40;99.90
23087;DHT22;11712;51.134;4.156;2023-03-20T12:01:22;11.40;99.90
23087;DHT22;11712;51.134;4.156;2023-03-20T12:03:52;11.50;99.90
23087;DHT22;11712;51.134;4.156;2023-03-20T12:06:26;11.50;99.90
23087;DHT22;11712;51.134;4.156;2023-03-20T12:08:55;11.70;99.90
23087;DHT22;11712;51.134;4.156;2023-03-20T12:13:53;12.00;99.90
23087;DHT22;11712;51.134;4.156;2023-03-20T12:16:22;12.00;99.90
23087;DHT22;11712;51.134;4.156;2023-03-20T12:18:53;11.90;99.90
23087;DHT22;11712;51.134;4.156;2023-03-20T12:21:38;11.60;99.90
23087;DHT22;11712;51.134;4.156;2023-03-20T12:31:55;11.40;99.90
23087;DHT22;11712;51.134;4.156;2023-03-20T12:36:48;11.30;99.90
23087;DHT22;11712;51.134;4.156;2023-03-20T12:39:16;11.30;99.90
23087;DHT22;11712;51.134;4.156;2023-03-20T12:49:42;11.50;99.90
23087;DHT22;11712;51.134;4.156;2023-03-20T12:57:17;11.30;99.90
23087;DHT22;11712;51.134;4.156;2023-03-20T13:02:24;11.30;99.90
23087;DHT22;11712;51.134;4.156;2023-03-20T13:04:56;11.30;99.90
23087;DHT22;11712;51.134;4.156;2023-03-20T13:07:38;11.30;99.90
23087;DHT22;11712;51.134;4.156;2023-03-20T13:15:27;11.80;99.90
23087;DHT22;11712;51.134;4.156;2023-03-20T13:20:42;11.80;99.90
23087;DHT22;11712;51.134;4.156;2023-03-20T13:26:25;11.90;99.90
23087;DHT22;11712;51.134;4.156;2023-03-20T13:28:38;11.80;99.90
23087;DHT22;11712;51.134;4.156;2023-03-20T13:31:18;11.70;99.90
23087;DHT22;11712;51.134;4.156;2023-03-20T13:36:22;11.80;99.90
23087;DHT22;11712;51.134;4.156;2023-03-20T13:38:53;11.60;99.90
23087;DHT22;11712;51.134;4.156;2023-03-20T13:41:21;11.70;99.90
23087;DHT22;11712;51.134;4.156;2023-03-20T13:43:49;11.60;99.90
23087;DHT22;11712;51.134;4.156;2023-03-20T13:46:21;11.60;99.90
23087;DHT22;11712;51.134;4.156;2023-03-20T13:48:48;11.50;99.90
23087;DHT22;11712;51.134;4.156;2023-03-20T13:56:43;11.50;99.90
23087;DHT22;11712;51.134;4.156;2023-03-20T14:02:06;11.60;99.90
23087;DHT22;11712;51.134;4.156;2023-03-20T14:04:35;11.80;99.90
23087;DHT22;11712;51.134;4.156;2023-03-20T14:07:01;12.00;99.90
23087;DHT22;11712;51.134;4.156;2023-03-20T14:09:27;12.10;99.90
23087;DHT22;11712;51.134;4.156;2023-03-20T14:11:58;12.10;99.90
23087;DHT22;11712;51.134;4.156;2023-03-20T14:17:37;12.10;99.90
23087;DHT22;11712;51.134;4.156;2023-03-20T14:19:36;12.10;99.90
23087;DHT22;11712;51.134;4.156;2023-03-20T14:22:02;12.00;99.90
23087;DHT22;11712;51.134;4.156;2023-03-20T14:24:28;12.00;99.90
23087;DHT22;11712;51.134;4.156;2023-03-20T14:27:00;12.00;99.90
23087;DHT22;11712;51.134;4.156;2023-03-20T14:34:45;11.70;99.90
23087;DHT22;11712;51.134;4.156;2023-03-20T14:40:01;11.80;99.90
23087;DHT22;11712;51.134;4.156;2023-03-20T14:42:36;11.70;99.90
23087;DHT22;11712;51.134;4.156;2023-03-20T14:50:21;11.60;99.90
23087;DHT22;11712;51.134;4.156;2023-03-20T14:57:49;11.50;99.90
23087;DHT22;11712;51.134;4.156;2023-03-20T15:00:19;11.60;99.90
23087;DHT22;11712;51.134;4.156;2023-03-20T15:02:45;11.70;99.90
23087;DHT22;11712;51.134;4.156;2023-03-20T15:08:11;11.90;99.90
23087;DHT22;11712;51.134;4.156;2023-03-20T15:10:46;11.90;99.90
23087;DHT22;11712;51.134;4.156;2023-03-20T15:13:13;11.90;99.90
23087;DHT22;11712;51.134;4.156;2023-03-20T15:15:50;11.90;99.90
23087;DHT22;11712;51.134;4.156;2023-03-20T15:18:16;12.00;99.90
23087;DHT22;11712;51.134;4.156;2023-03-20T15:20:43;12.10;99.90
23087;DHT22;11712;51.134;4.156;2023-03-20T15:23:08;12.10;99.90
23087;DHT22;11712;51.134;4.156;2023-03-20T15:25:38;12.10;99.90
23087;DHT22;11712;51.134;4.156;2023-03-20T15:28:04;12.00;99.90
23087;DHT22;11712;51.134;4.156;2023-03-20T15:30:30;12.00;99.90
23087;DHT22;11712;51.134;4.156;2023-03-20T15:32:57;12.00;99.90
23087;DHT22;11712;51.134;4.156;2023-03-20T15:35:24;12.00;99.90
23087;DHT22;11712;51.134;4.156;2023-03-20T15:37:50;12.00;99.90
23087;DHT22;11712;51.134;4.156;2023-03-20T15:40:24;11.90;99.90
23087;DHT22;11712;51.134;4.156;2023-03-20T15:42:57;11.90;99.90
23087;DHT22;11712;51.134;4.156;2023-03-20T15:45:27;12.00;99.90
23087;DHT22;11712;51.134;4.156;2023-03-20T15:48:26;12.10;99.90
23087;DHT22;11712;51.134;4.156;2023-03-20T15:50:45;12.10;99.90
23087;DHT22;11712;51.134;4.156;2023-03-20T15:53:22;12.10;99.90
23087;DHT22;11712;51.134;4.156;2023-03-20T15:55:52;12.00;99.90
23087;DHT22;11712;51.134;4.156;2023-03-20T15:58:18;12.00;99.90
23087;DHT22;11712;51.134;4.156;2023-03-20T16:00:47;12.00;99.90
23087;DHT22;11712;51.134;4.156;2023-03-20T16:03:14;12.00;99.90
23087;DHT22;11712;51.134;4.156;2023-03-20T16:05:44;12.00;99.90
23087;DHT22;11712;51.134;4.156;2023-03-20T16:08:11;12.00;99.90
23087;DHT22;11712;51.134;4.156;2023-03-20T16:10:39;12.00;99.90
23087;DHT22;11712;51.134;4.156;2023-03-20T16:13:05;12.00;99.90
23087;DHT22;11712;51.134;4.156;2023-03-20T16:15:31;12.00;99.90
23087;DHT22;11712;51.134;4.156;2023-03-20T16:17:58;11.90;99.90
23087;DHT22;11712;51.134;4.156;2023-03-20T16:20:26;11.90;99.90
23087;DHT22;11712;51.134;4.156;2023-03-20T16:22:54;11.90;99.90
23087;DHT22;11712;51.134;4.156;2023-03-20T16:25:21;11.90;99.90
23087;DHT22;11712;51.134;4.156;2023-03-20T16:27:48;11.90;99.90
23087;DHT22;11712;51.134;4.156;2023-03-20T16:30:16;11.90;99.90
23087;DHT22;11712;51.134;4.156;2023-03-20T16:32:43;11.90;99.90
23087;DHT22;11712;51.134;4.156;2023-03-20T16:35:21;11.90;99.90
23087;DHT22;11712;51.134;4.156;2023-03-20T16:37:59;11.90;99.90
23087;DHT22;11712;51.134;4.156;2023-03-20T16:40:35;11.90;99.90
23087;DHT22;11712;51.134;4.156;2023-03-20T16:43:11;11.90;99.90
23087;DHT22;11712;51.134;4.156;2023-03-20T16:45:37;11.90;99.90
23087;DHT22;11712;51.134;4.156;2023-03-20T16:50:35;12.10;99.90
23087;DHT22;11712;51.134;4.156;2023-03-20T16:53:01;12.00;99.90
23087;DHT22;11712;51.134;4.156;2023-03-20T16:55:27;12.00;99.90
23087;DHT22;11712;51.134;4.156;2023-03-20T16:57:57;12.00;99.90
23087;DHT22;11712;51.134;4.156;2023-03-20T17:00:27;11.90;99.90
23087;DHT22;11712;51.134;4.156;2023-03-20T17:03:00;11.90;99.90
23087;DHT22;11712;51.134;4.156;2023-03-20T17:05:34;11.90;99.90
23087;DHT22;11712;51.134;4.156;2023-03-20T17:08:05;11.80;99.90
23087;DHT22;11712;51.134;4.156;2023-03-20T17:10:34;11.80;99.90
23087;DHT22;11712;51.134;4.156;2023-03-20T17:13:01;11.80;99.90
23087;DHT22;11712;51.134;4.156;2023-03-20T17:15:27;11.70;99.90
23087;DHT22;11712;51.134;4.156;2023-03-20T17:17:52;11.60;99.90
23087;DHT22;11712;51.134;4.156;2023-03-20T17:20:22;11.60;99.90
23087;DHT22;11712;51.134;4.156;2023-03-20T17:22:48;11.60;99.90
23087;DHT22;11712;51.134;4.156;2023-03-20T17:25:14;11.60;99.90
23087;DHT22;11712;51.134;4.156;2023-03-20T17:27:40;11.70;99.90
23087;DHT22;11712;51.134;4.156;2023-03-20T17:30:09;11.70;99.90
23087;DHT22;11712;51.134;4.156;2023-03-20T17:32:37;11.70;99.90
23087;DHT22;11712;51.134;4.156;2023-03-20T17:35:03;11.70;99.90
23087;DHT22;11712;51.134;4.156;2023-03-20T17:37:29;11.60;99.90
23087;DHT22;11712;51.134;4.156;2023-03-20T17:39:54;11.60;99.90
23087;DHT22;11712;51.134;4.156;2023-03-20T17:42:21;11.60;99.90
23087;DHT22;11712;51.134;4.156;2023-03-20T17:44:48;11.60;99.90
23087;DHT22;11712;51.134;4.156;2023-03-20T17:47:15;11.60;99.90
23087;DHT22;11712;51.134;4.156;2023-03-20T17:49:41;11.50;99.90
23087;DHT22;11712;51.134;4.156;2023-03-20T17:52:13;11.50;99.90
23087;DHT22;11712;51.134;4.156;2023-03-20T17:54:39;11.60;99.90
23087;DHT22;11712;51.134;4.156;2023-03-20T17:57:05;11.50;99.90
23087;DHT22;11712;51.134;4.156;2023-03-20T17:59:31;11.50;99.90
23087;DHT22;11712;51.134;4.156;2023-03-20T18:01:57;11.40;99.90
23087;DHT22;11712;51.134;4.156;2023-03-20T18:04:22;11.40;99.90
23087;DHT22;11712;51.134;4.156;2023-03-20T18:06:48;11.50;99.90
23087;DHT22;11712;51.134;4.156;2023-03-20T18:09:14;11.50;99.90
23087;DHT22;11712;51.134;4.156;2023-03-20T18:11:40;11.50;99.90